sensor_id;sensor_type;location;lat;lon;timestamp;P1;durP1;ratioP1;P2;durP2;ratioP2
45806;SDS011;31507;51.494;7.518;2023-04-03T00:00:22;47.13;;;27.80;;
45806;SDS011;31507;51.494;7.518;2023-04-03T00:02:47;44.90;;;28.92;;
45806;SDS011;31507;51.494;7.518;2023-04-03T00:05:13;47.67;;;29.08;;
45806;SDS011;31507;51.494;7.518;2023-04-03T00:07:39;48.67;;;27.17;;
45806;SDS011;31507;51.494;7.518;2023-04-03T00:10:05;47.70;;;28.77;;
45806;SDS011;31507;51.494;7.518;2023-04-03T00:12:31;48.83;;;28.55;;
45806;SDS011;31507;51.494;7.518;2023-04-03T00:14:56;46.63;;;26.23;;
45806;SDS011;31507;51.494;7.518;2023-04-03T00:17:22;43.90;;;25.90;;
45806;SDS011;31507;51.494;7.518;2023-04-03T00:19:48;44.63;;;24.65;;
45806;SDS011;31507;51.494;7.518;2023-04-03T00:22:13;35.90;;;23.60;;
45806;SDS011;31507;51.494;7.518;2023-04-03T00:24:39;40.53;;;24.00;;
45806;SDS011;31507;51.494;7.518;2023-04-03T00:27:04;35.90;;;22.55;;
45806;SDS011;31507;51.494;7.518;2023-04-03T00:29:30;35.33;;;21.52;;
45806;SDS011;31507;51.494;7.518;2023-04-03T00:31:56;31.60;;;21.50;;
45806;SDS011;31507;51.494;7.518;2023-04-03T00:34:21;29.38;;;20.70;;
45806;SDS011;31507;51.494;7.518;2023-04-03T00:36:47;29.40;;;19.35;;
45806;SDS011;31507;51.494;7.518;2023-04-03T00:39:12;26.95;;;18.88;;
45806;SDS011;31507;51.494;7.518;2023-04-03T00:41:38;24.67;;;18.10;;
45806;SDS011;31507;51.494;7.518;2023-04-03T00:46:52;27.13;;;15.43;;
45806;SDS011;31507;51.494;7.518;2023-04-03T00:49:18;24.92;;;14.35;;
45806;SDS011;31507;51.494;7.518;2023-04-03T00:51:44;24.40;;;12.88;;
45806;SDS011;31507;51.494;7.518;2023-04-03T00:54:10;16.38;;;10.13;;
45806;SDS011;31507;51.494;7.518;2023-04-03T00:56:36;24.00;;;9.82;;
45806;SDS011;31507;51.494;7.518;2023-04-03T00:59:07;16.80;;;8.57;;
45806;SDS011;31507;51.494;7.518;2023-04-03T01:01:36;14.63;;;7.63;;
45806;SDS011;31507;51.494;7.518;2023-04-03T01:04:03;9.93;;;6.03;;
45806;SDS011;31507;51.494;7.518;2023-04-03T01:06:32;14.38;;;6.22;;
45806;SDS011;31507;51.494;7.518;2023-04-03T01:09:00;14.35;;;5.55;;
45806;SDS011;31507;51.494;7.518;2023-04-03T01:11:27;11.63;;;5.53;;
45806;SDS011;31507;51.494;7.518;2023-04-03T01:13:53;9.27;;;5.57;;
45806;SDS011;31507;51.494;7.518;2023-04-03T01:16:18;10.95;;;4.88;;
45806;SDS011;31507;51.494;7.518;2023-04-03T01:18:44;8.85;;;4.45;;
45806;SDS011;31507;51.494;7.518;2023-04-03T01:27:08;6.93;;;3.63;;
45806;SDS011;31507;51.494;7.518;2023-04-03T01:29:35;12.50;;;3.88;;
45806;SDS011;31507;51.494;7.518;2023-04-03T01:32:02;9.88;;;4.22;;
45806;SDS011;31507;51.494;7.518;2023-04-03T01:34:28;7.82;;;3.25;;
45806;SDS011;31507;51.494;7.518;2023-04-03T01:36:55;8.43;;;3.20;;
45806;SDS011;31507;51.494;7.518;2023-04-03T01:39:21;11.25;;;4.53;;
45806;SDS011;31507;51.494;7.518;2023-04-03T01:41:47;12.63;;;3.45;;
45806;SDS011;31507;51.494;7.518;2023-04-03T01:44:13;4.45;;;2.92;;
45806;SDS011;31507;51.494;7.518;2023-04-03T01:46:38;7.03;;;3.03;;
45806;SDS011;31507;51.494;7.518;2023-04-03T01:49:04;8.25;;;3.08;;
45806;SDS011;31507;51.494;7.518;2023-04-03T01:51:30;7.68;;;2.97;;
45806;SDS011;31507;51.494;7.518;2023-04-03T01:53:56;8.82;;;2.92;;
45806;SDS011;31507;51.494;7.518;2023-04-03T01:56:22;8.98;;;3.33;;
45806;SDS011;31507;51.494;7.518;2023-04-03T01:58:48;6.55;;;3.05;;
45806;SDS011;31507;51.494;7.518;2023-04-03T02:01:13;10.65;;;3.15;;
45806;SDS011;31507;51.494;7.518;2023-04-03T02:03:39;6.95;;;2.90;;
45806;SDS011;31507;51.494;7.518;2023-04-03T02:06:05;8.85;;;2.55;;
45806;SDS011;31507;51.494;7.518;2023-04-03T02:08:31;9.93;;;2.60;;
45806;SDS011;31507;51.494;7.518;2023-04-03T02:10:56;4.35;;;2.40;;
45806;SDS011;31507;51.494;7.518;2023-04-03T02:13:22;11.77;;;2.90;;
45806;SDS011;31507;51.494;7.518;2023-04-03T02:15:48;9.93;;;2.70;;
45806;SDS011;31507;51.494;7.518;2023-04-03T02:18:14;11.90;;;2.75;;
45806;SDS011;31507;51.494;7.518;2023-04-03T02:20:40;12.05;;;2.72;;
45806;SDS011;31507;51.494;7.518;2023-04-03T02:23:05;5.25;;;2.75;;
45806;SDS011;31507;51.494;7.518;2023-04-03T02:25:31;7.15;;;2.65;;
45806;SDS011;31507;51.494;7.518;2023-04-03T02:27:58;8.85;;;3.00;;
45806;SDS011;31507;51.494;7.518;2023-04-03T02:30:24;8.20;;;2.80;;
45806;SDS011;31507;51.494;7.518;2023-04-03T02:32:50;6.50;;;2.67;;
45806;SDS011;31507;51.494;7.518;2023-04-03T02:35:15;7.68;;;3.05;;
45806;SDS011;31507;51.494;7.518;2023-04-03T02:37:41;7.50;;;2.55;;
45806;SDS011;31507;51.494;7.518;2023-04-03T02:40:08;5.45;;;2.67;;
45806;SDS011;31507;51.494;7.518;2023-04-03T02:42:34;7.45;;;3.13;;
45806;SDS011;31507;51.494;7.518;2023-04-03T02:45:00;7.35;;;2.40;;
45806;SDS011;31507;51.494;7.518;2023-04-03T02:47:26;7.70;;;2.60;;
45806;SDS011;31507;51.494;7.518;2023-04-03T02:49:52;6.05;;;2.45;;
45806;SDS011;31507;51.494;7.518;2023-04-03T02:52:18;6.00;;;2.55;;
45806;SDS011;31507;51.494;7.518;2023-04-03T02:54:44;7.13;;;2.33;;
45806;SDS011;31507;51.494;7.518;2023-04-03T02:57:10;9.15;;;2.70;;
45806;SDS011;31507;51.494;7.518;2023-04-03T02:59:36;9.10;;;2.78;;
45806;SDS011;31507;51.494;7.518;2023-04-03T03:02:05;5.30;;;2.55;;
45806;SDS011;31507;51.494;7.518;2023-04-03T03:04:31;8.73;;;2.67;;
45806;SDS011;31507;51.494;7.518;2023-04-03T03:06:57;4.65;;;2.28;;
45806;SDS011;31507;51.494;7.518;2023-04-03T03:09:23;6.18;;;2.95;;
45806;SDS011;31507;51.494;7.518;2023-04-03T03:11:48;7.53;;;2.45;;
45806;SDS011;31507;51.494;7.518;2023-04-03T03:14:14;6.28;;;2.65;;
45806;SDS011;31507;51.494;7.518;2023-04-03T03:16:39;5.28;;;2.30;;
45806;SDS011;31507;51.494;7.518;2023-04-03T03:19:05;7.53;;;2.85;;
45806;SDS011;31507;51.494;7.518;2023-04-03T03:21:31;5.95;;;2.85;;
45806;SDS011;31507;51.494;7.518;2023-04-03T03:23:57;5.50;;;2.38;;
45806;SDS011;31507;51.494;7.518;2023-04-03T03:26:23;6.15;;;2.55;;
45806;SDS011;31507;51.494;7.518;2023-04-03T03:28:49;4.15;;;2.38;;
45806;SDS011;31507;51.494;7.518;2023-04-03T03:31:14;4.82;;;2.20;;
45806;SDS011;31507;51.494;7.518;2023-04-03T03:33:40;8.07;;;2.53;;
45806;SDS011;31507;51.494;7.518;2023-04-03T03:36:06;7.65;;;2.40;;
45806;SDS011;31507;51.494;7.518;2023-04-03T03:38:32;10.10;;;2.33;;
45806;SDS011;31507;51.494;7.518;2023-04-03T03:40:57;6.70;;;2.22;;
45806;SDS011;31507;51.494;7.518;2023-04-03T03:43:23;7.07;;;2.63;;
45806;SDS011;31507;51.494;7.518;2023-04-03T03:45:50;5.68;;;2.50;;
45806;SDS011;31507;51.494;7.518;2023-04-03T03:48:17;7.50;;;2.80;;
45806;SDS011;31507;51.494;7.518;2023-04-03T03:50:43;11.45;;;2.55;;
45806;SDS011;31507;51.494;7.518;2023-04-03T03:53:09;4.60;;;2.40;;
45806;SDS011;31507;51.494;7.518;2023-04-03T03:55:35;10.48;;;2.13;;
45806;SDS011;31507;51.494;7.518;2023-04-03T03:58:00;6.15;;;2.60;;
45806;SDS011;31507;51.494;7.518;2023-04-03T04:00:26;9.85;;;2.88;;
45806;SDS011;31507;51.494;7.518;2023-04-03T04:02:53;10.20;;;3.13;;
45806;SDS011;31507;51.494;7.518;2023-04-03T04:05:18;9.15;;;3.08;;
45806;SDS011;31507;51.494;7.518;2023-04-03T04:07:44;9.70;;;3.05;;
45806;SDS011;31507;51.494;7.518;2023-04-03T04:10:10;11.60;;;3.42;;
45806;SDS011;31507;51.494;7.518;2023-04-03T04:12:36;7.90;;;2.90;;
45806;SDS011;31507;51.494;7.518;2023-04-03T04:15:02;10.55;;;3.25;;
45806;SDS011;31507;51.494;7.518;2023-04-03T04:17:28;7.25;;;2.97;;
45806;SDS011;31507;51.494;7.518;2023-04-03T04:19:53;6.93;;;2.67;;
45806;SDS011;31507;51.494;7.518;2023-04-03T04:22:19;9.27;;;2.50;;
45806;SDS011;31507;51.494;7.518;2023-04-03T04:24:45;7.63;;;2.58;;
45806;SDS011;31507;51.494;7.518;2023-04-03T04:27:10;8.27;;;2.80;;
45806;SDS011;31507;51.494;7.518;2023-04-03T04:29:36;9.30;;;3.00;;
45806;SDS011;31507;51.494;7.518;2023-04-03T04:32:05;8.55;;;3.13;;
45806;SDS011;31507;51.494;7.518;2023-04-03T04:34:30;10.32;;;2.92;;
45806;SDS011;31507;51.494;7.518;2023-04-03T04:36:56;9.27;;;3.00;;
45806;SDS011;31507;51.494;7.518;2023-04-03T04:39:22;10.60;;;3.30;;
45806;SDS011;31507;51.494;7.518;2023-04-03T04:41:47;8.93;;;3.10;;
45806;SDS011;31507;51.494;7.518;2023-04-03T04:44:13;11.05;;;3.00;;
45806;SDS011;31507;51.494;7.518;2023-04-03T04:46:39;4.93;;;2.55;;
45806;SDS011;31507;51.494;7.518;2023-04-03T04:49:05;6.00;;;3.00;;
45806;SDS011;31507;51.494;7.518;2023-04-03T04:51:31;6.45;;;3.03;;
45806;SDS011;31507;51.494;7.518;2023-04-03T04:53:56;10.60;;;3.00;;
45806;SDS011;31507;51.494;7.518;2023-04-03T04:56:22;11.50;;;2.80;;
45806;SDS011;31507;51.494;7.518;2023-04-03T04:58:48;11.20;;;2.95;;
45806;SDS011;31507;51.494;7.518;2023-04-03T05:01:14;6.68;;;2.88;;
45806;SDS011;31507;51.494;7.518;2023-04-03T05:03:39;12.20;;;3.03;;
45806;SDS011;31507;51.494;7.518;2023-04-03T05:06:05;11.30;;;3.22;;
45806;SDS011;31507;51.494;7.518;2023-04-03T05:08:31;12.40;;;2.78;;
45806;SDS011;31507;51.494;7.518;2023-04-03T05:10:57;4.43;;;2.65;;
45806;SDS011;31507;51.494;7.518;2023-04-03T05:13:23;6.88;;;3.45;;
45806;SDS011;31507;51.494;7.518;2023-04-03T05:15:48;8.18;;;2.83;;
45806;SDS011;31507;51.494;7.518;2023-04-03T05:18:14;11.65;;;3.47;;
45806;SDS011;31507;51.494;7.518;2023-04-03T05:20:40;17.23;;;3.30;;
45806;SDS011;31507;51.494;7.518;2023-04-03T05:23:06;9.77;;;2.95;;
45806;SDS011;31507;51.494;7.518;2023-04-03T05:25:31;6.30;;;2.72;;
45806;SDS011;31507;51.494;7.518;2023-04-03T05:27:57;8.77;;;3.00;;
45806;SDS011;31507;51.494;7.518;2023-04-03T05:30:23;10.95;;;3.40;;
45806;SDS011;31507;51.494;7.518;2023-04-03T05:32:49;8.98;;;3.30;;
45806;SDS011;31507;51.494;7.518;2023-04-03T05:35:15;7.75;;;3.05;;
45806;SDS011;31507;51.494;7.518;2023-04-03T05:37:40;7.32;;;3.22;;
45806;SDS011;31507;51.494;7.518;2023-04-03T05:40:06;11.88;;;2.78;;
45806;SDS011;31507;51.494;7.518;2023-04-03T05:42:33;9.68;;;3.22;;
45806;SDS011;31507;51.494;7.518;2023-04-03T05:44:59;7.63;;;2.88;;
45806;SDS011;31507;51.494;7.518;2023-04-03T05:47:25;9.57;;;3.10;;
45806;SDS011;31507;51.494;7.518;2023-04-03T05:49:50;12.35;;;3.00;;
45806;SDS011;31507;51.494;7.518;2023-04-03T05:52:24;6.25;;;2.60;;
45806;SDS011;31507;51.494;7.518;2023-04-03T05:54:55;11.13;;;3.22;;
45806;SDS011;31507;51.494;7.518;2023-04-03T05:57:21;6.82;;;2.60;;
45806;SDS011;31507;51.494;7.518;2023-04-03T05:59:47;13.15;;;2.78;;
45806;SDS011;31507;51.494;7.518;2023-04-03T06:02:15;11.55;;;3.17;;
45806;SDS011;31507;51.494;7.518;2023-04-03T06:04:42;13.63;;;3.50;;
45806;SDS011;31507;51.494;7.518;2023-04-03T06:07:12;12.77;;;2.75;;
45806;SDS011;31507;51.494;7.518;2023-04-03T06:09:40;7.30;;;2.60;;
45806;SDS011;31507;51.494;7.518;2023-04-03T06:12:07;4.65;;;1.98;;
45806;SDS011;31507;51.494;7.518;2023-04-03T06:14:32;8.10;;;2.50;;
45806;SDS011;31507;51.494;7.518;2023-04-03T06:16:58;7.05;;;2.70;;
45806;SDS011;31507;51.494;7.518;2023-04-03T06:19:24;6.95;;;2.83;;
45806;SDS011;31507;51.494;7.518;2023-04-03T06:21:50;6.57;;;2.55;;
45806;SDS011;31507;51.494;7.518;2023-04-03T06:24:17;5.63;;;2.20;;
45806;SDS011;31507;51.494;7.518;2023-04-03T06:26:44;12.98;;;2.47;;
45806;SDS011;31507;51.494;7.518;2023-04-03T06:29:11;8.80;;;2.38;;
45806;SDS011;31507;51.494;7.518;2023-04-03T06:31:36;9.75;;;2.60;;
45806;SDS011;31507;51.494;7.518;2023-04-03T06:34:03;11.57;;;2.97;;
45806;SDS011;31507;51.494;7.518;2023-04-03T06:36:29;6.88;;;2.28;;
45806;SDS011;31507;51.494;7.518;2023-04-03T06:38:55;8.60;;;2.50;;
45806;SDS011;31507;51.494;7.518;2023-04-03T06:41:20;10.73;;;2.58;;
45806;SDS011;31507;51.494;7.518;2023-04-03T06:43:46;9.48;;;2.65;;
45806;SDS011;31507;51.494;7.518;2023-04-03T06:46:16;9.07;;;2.60;;
45806;SDS011;31507;51.494;7.518;2023-04-03T06:48:43;7.85;;;2.28;;
45806;SDS011;31507;51.494;7.518;2023-04-03T06:53:49;7.10;;;2.42;;
45806;SDS011;31507;51.494;7.518;2023-04-03T06:56:16;7.25;;;2.10;;
45806;SDS011;31507;51.494;7.518;2023-04-03T06:58:42;7.88;;;2.28;;
45806;SDS011;31507;51.494;7.518;2023-04-03T07:01:10;4.40;;;1.67;;
45806;SDS011;31507;51.494;7.518;2023-04-03T07:03:37;7.03;;;2.20;;
45806;SDS011;31507;51.494;7.518;2023-04-03T07:06:07;4.50;;;2.05;;
45806;SDS011;31507;51.494;7.518;2023-04-03T07:08:35;7.18;;;2.33;;
45806;SDS011;31507;51.494;7.518;2023-04-03T07:11:01;4.40;;;1.67;;
45806;SDS011;31507;51.494;7.518;2023-04-03T07:13:27;6.75;;;1.80;;
45806;SDS011;31507;51.494;7.518;2023-04-03T07:15:53;5.97;;;2.10;;
45806;SDS011;31507;51.494;7.518;2023-04-03T07:18:19;8.50;;;2.15;;
45806;SDS011;31507;51.494;7.518;2023-04-03T07:20:46;1.95;;;1.20;;
45806;SDS011;31507;51.494;7.518;2023-04-03T07:23:12;4.55;;;1.90;;
45806;SDS011;31507;51.494;7.518;2023-04-03T07:25:42;7.40;;;1.90;;
45806;SDS011;31507;51.494;7.518;2023-04-03T07:28:11;5.18;;;1.90;;
45806;SDS011;31507;51.494;7.518;2023-04-03T07:30:44;7.07;;;1.65;;
45806;SDS011;31507;51.494;7.518;2023-04-03T07:33:16;4.13;;;1.75;;
45806;SDS011;31507;51.494;7.518;2023-04-03T07:35:43;5.32;;;1.90;;
45806;SDS011;31507;51.494;7.518;2023-04-03T07:38:10;3.75;;;1.92;;
45806;SDS011;31507;51.494;7.518;2023-04-03T07:40:36;9.15;;;2.25;;
45806;SDS011;31507;51.494;7.518;2023-04-03T07:43:02;9.05;;;1.67;;
45806;SDS011;31507;51.494;7.518;2023-04-03T07:45:29;4.78;;;1.90;;
45806;SDS011;31507;51.494;7.518;2023-04-03T07:47:54;10.32;;;1.90;;
45806;SDS011;31507;51.494;7.518;2023-04-03T07:50:21;10.05;;;2.38;;
45806;SDS011;31507;51.494;7.518;2023-04-03T07:52:47;8.05;;;1.90;;
45806;SDS011;31507;51.494;7.518;2023-04-03T07:55:13;11.32;;;2.13;;
45806;SDS011;31507;51.494;7.518;2023-04-03T07:57:38;6.53;;;2.10;;
45806;SDS011;31507;51.494;7.518;2023-04-03T08:00:05;6.88;;;1.90;;
45806;SDS011;31507;51.494;7.518;2023-04-03T08:02:31;8.20;;;1.92;;
45806;SDS011;31507;51.494;7.518;2023-04-03T08:04:57;4.47;;;1.48;;
45806;SDS011;31507;51.494;7.518;2023-04-03T08:07:23;11.25;;;1.80;;
45806;SDS011;31507;51.494;7.518;2023-04-03T08:09:49;6.72;;;1.83;;
45806;SDS011;31507;51.494;7.518;2023-04-03T08:12:15;8.55;;;1.98;;
45806;SDS011;31507;51.494;7.518;2023-04-03T08:14:41;7.57;;;1.75;;
45806;SDS011;31507;51.494;7.518;2023-04-03T08:17:07;6.90;;;2.20;;
45806;SDS011;31507;51.494;7.518;2023-04-03T08:19:36;3.72;;;1.75;;
45806;SDS011;31507;51.494;7.518;2023-04-03T08:22:02;6.90;;;1.92;;
45806;SDS011;31507;51.494;7.518;2023-04-03T08:24:28;13.48;;;2.35;;
45806;SDS011;31507;51.494;7.518;2023-04-03T08:26:54;2.60;;;1.42;;
45806;SDS011;31507;51.494;7.518;2023-04-03T08:29:20;5.82;;;1.92;;
45806;SDS011;31507;51.494;7.518;2023-04-03T08:31:46;7.80;;;2.00;;
45806;SDS011;31507;51.494;7.518;2023-04-03T08:34:12;5.85;;;2.00;;
45806;SDS011;31507;51.494;7.518;2023-04-03T08:36:39;3.20;;;1.60;;
45806;SDS011;31507;51.494;7.518;2023-04-03T08:39:05;9.88;;;1.77;;
45806;SDS011;31507;51.494;7.518;2023-04-03T08:49:57;4.65;;;1.60;;
45806;SDS011;31507;51.494;7.518;2023-04-03T08:55:24;5.50;;;1.60;;
45806;SDS011;31507;51.494;7.518;2023-04-03T09:03:39;7.50;;;1.63;;
45806;SDS011;31507;51.494;7.518;2023-04-03T09:08:42;6.40;;;2.15;;
45806;SDS011;31507;51.494;7.518;2023-04-03T09:14:02;8.57;;;1.83;;
45806;SDS011;31507;51.494;7.518;2023-04-03T09:22:00;6.93;;;1.65;;
45806;SDS011;31507;51.494;7.518;2023-04-03T09:24:36;5.13;;;1.75;;
45806;SDS011;31507;51.494;7.518;2023-04-03T09:27:07;8.48;;;1.85;;
45806;SDS011;31507;51.494;7.518;2023-04-03T09:29:35;5.80;;;1.77;;
45806;SDS011;31507;51.494;7.518;2023-04-03T09:35:03;4.40;;;1.70;;
45806;SDS011;31507;51.494;7.518;2023-04-03T09:37:42;5.50;;;1.83;;
45806;SDS011;31507;51.494;7.518;2023-04-03T09:41:02;5.40;;;1.80;;
45806;SDS011;31507;51.494;7.518;2023-04-03T09:45:53;4.80;;;1.65;;
45806;SDS011;31507;51.494;7.518;2023-04-03T09:48:24;4.97;;;1.92;;
45806;SDS011;31507;51.494;7.518;2023-04-03T09:53:40;7.70;;;2.08;;
45806;SDS011;31507;51.494;7.518;2023-04-03T09:58:42;4.18;;;1.77;;
45806;SDS011;31507;51.494;7.518;2023-04-03T10:01:55;3.72;;;1.50;;
45806;SDS011;31507;51.494;7.518;2023-04-03T10:04:17;4.53;;;1.60;;
45806;SDS011;31507;51.494;7.518;2023-04-03T10:06:45;5.28;;;1.38;;
45806;SDS011;31507;51.494;7.518;2023-04-03T10:12:11;7.07;;;2.00;;
45806;SDS011;31507;51.494;7.518;2023-04-03T10:14:38;3.70;;;1.17;;
45806;SDS011;31507;51.494;7.518;2023-04-03T10:23:36;3.53;;;1.40;;
45806;SDS011;31507;51.494;7.518;2023-04-03T10:25:54;3.65;;;1.35;;
45806;SDS011;31507;51.494;7.518;2023-04-03T10:28:31;4.78;;;1.40;;
45806;SDS011;31507;51.494;7.518;2023-04-03T10:39:18;4.25;;;1.27;;
45806;SDS011;31507;51.494;7.518;2023-04-03T10:47:12;2.35;;;1.27;;
45806;SDS011;31507;51.494;7.518;2023-04-03T10:57:38;2.35;;;1.35;;
45806;SDS011;31507;51.494;7.518;2023-04-03T11:00:07;5.43;;;1.38;;
45806;SDS011;31507;51.494;7.518;2023-04-03T11:02:59;8.95;;;1.23;;
45806;SDS011;31507;51.494;7.518;2023-04-03T11:08:07;7.53;;;1.33;;
45806;SDS011;31507;51.494;7.518;2023-04-03T11:11:04;4.88;;;1.10;;
45806;SDS011;31507;51.494;7.518;2023-04-03T11:13:34;3.85;;;1.27;;
45806;SDS011;31507;51.494;7.518;2023-04-03T11:16:13;4.07;;;1.15;;
45806;SDS011;31507;51.494;7.518;2023-04-03T11:18:58;2.83;;;0.87;;
45806;SDS011;31507;51.494;7.518;2023-04-03T11:21:29;2.97;;;1.15;;
45806;SDS011;31507;51.494;7.518;2023-04-03T11:24:17;3.15;;;0.95;;
45806;SDS011;31507;51.494;7.518;2023-04-03T11:26:47;2.67;;;1.10;;
45806;SDS011;31507;51.494;7.518;2023-04-03T11:29:24;2.63;;;1.23;;
45806;SDS011;31507;51.494;7.518;2023-04-03T11:32:13;3.38;;;0.90;;
45806;SDS011;31507;51.494;7.518;2023-04-03T11:35:04;2.95;;;1.10;;
45806;SDS011;31507;51.494;7.518;2023-04-03T11:37:38;2.60;;;0.95;;
45806;SDS011;31507;51.494;7.518;2023-04-03T11:40:16;1.95;;;0.90;;
45806;SDS011;31507;51.494;7.518;2023-04-03T11:43:55;1.95;;;1.10;;
45806;SDS011;31507;51.494;7.518;2023-04-03T11:50:57;2.08;;;0.95;;
45806;SDS011;31507;51.494;7.518;2023-04-03T11:53:41;5.38;;;1.25;;
45806;SDS011;31507;51.494;7.518;2023-04-03T11:56:29;3.10;;;1.17;;
45806;SDS011;31507;51.494;7.518;2023-04-03T12:04:11;2.20;;;1.08;;
45806;SDS011;31507;51.494;7.518;2023-04-03T12:09:21;3.22;;;1.10;;
45806;SDS011;31507;51.494;7.518;2023-04-03T12:11:47;4.30;;;1.02;;
45806;SDS011;31507;51.494;7.518;2023-04-03T12:14:14;3.47;;;1.00;;
45806;SDS011;31507;51.494;7.518;2023-04-03T12:24:27;3.17;;;1.30;;
45806;SDS011;31507;51.494;7.518;2023-04-03T12:29:59;5.07;;;0.95;;
45806;SDS011;31507;51.494;7.518;2023-04-03T12:40:25;3.63;;;1.27;;
45806;SDS011;31507;51.494;7.518;2023-04-03T12:45:48;3.28;;;1.05;;
45806;SDS011;31507;51.494;7.518;2023-04-03T12:48:47;5.75;;;1.10;;
45806;SDS011;31507;51.494;7.518;2023-04-03T12:51:28;2.97;;;1.02;;
45806;SDS011;31507;51.494;7.518;2023-04-03T12:54:26;3.85;;;1.13;;
45806;SDS011;31507;51.494;7.518;2023-04-03T12:57:23;2.67;;;0.95;;
45806;SDS011;31507;51.494;7.518;2023-04-03T12:59:49;2.58;;;1.02;;
45806;SDS011;31507;51.494;7.518;2023-04-03T13:02:25;2.55;;;1.13;;
45806;SDS011;31507;51.494;7.518;2023-04-03T13:04:53;4.38;;;1.10;;
45806;SDS011;31507;51.494;7.518;2023-04-03T13:07:32;3.00;;;1.10;;
45806;SDS011;31507;51.494;7.518;2023-04-03T13:12:55;2.55;;;1.45;;
45806;SDS011;31507;51.494;7.518;2023-04-03T13:17:47;6.13;;;1.10;;
45806;SDS011;31507;51.494;7.518;2023-04-03T13:25:19;6.13;;;1.15;;
45806;SDS011;31507;51.494;7.518;2023-04-03T13:27:46;4.28;;;0.98;;
45806;SDS011;31507;51.494;7.518;2023-04-03T13:30:17;2.63;;;0.98;;
45806;SDS011;31507;51.494;7.518;2023-04-03T13:32:56;3.97;;;1.52;;
45806;SDS011;31507;51.494;7.518;2023-04-03T13:40:47;5.43;;;1.40;;
45806;SDS011;31507;51.494;7.518;2023-04-03T13:43:18;4.82;;;1.60;;
45806;SDS011;31507;51.494;7.518;2023-04-03T13:48:25;2.90;;;1.45;;
45806;SDS011;31507;51.494;7.518;2023-04-03T13:50:53;2.35;;;0.90;;
45806;SDS011;31507;51.494;7.518;2023-04-03T13:53:21;2.78;;;1.50;;
45806;SDS011;31507;51.494;7.518;2023-04-03T13:58:28;1.80;;;0.93;;
45806;SDS011;31507;51.494;7.518;2023-04-03T14:03:57;4.97;;;1.40;;
45806;SDS011;31507;51.494;7.518;2023-04-03T14:06:24;3.88;;;1.20;;
45806;SDS011;31507;51.494;7.518;2023-04-03T14:08:51;6.82;;;1.33;;
45806;SDS011;31507;51.494;7.518;2023-04-03T14:11:18;4.75;;;1.00;;
45806;SDS011;31507;51.494;7.518;2023-04-03T14:13:49;2.88;;;1.48;;
45806;SDS011;31507;51.494;7.518;2023-04-03T14:16:16;4.18;;;1.00;;
45806;SDS011;31507;51.494;7.518;2023-04-03T14:18:46;7.28;;;1.83;;
45806;SDS011;31507;51.494;7.518;2023-04-03T14:21:13;6.50;;;1.38;;
45806;SDS011;31507;51.494;7.518;2023-04-03T14:23:40;4.78;;;1.33;;
45806;SDS011;31507;51.494;7.518;2023-04-03T14:26:10;3.55;;;1.40;;
45806;SDS011;31507;51.494;7.518;2023-04-03T14:28:41;2.35;;;1.33;;
45806;SDS011;31507;51.494;7.518;2023-04-03T14:31:07;3.80;;;1.20;;
45806;SDS011;31507;51.494;7.518;2023-04-03T14:33:32;4.78;;;1.15;;
45806;SDS011;31507;51.494;7.518;2023-04-03T14:36:01;3.10;;;1.20;;
45806;SDS011;31507;51.494;7.518;2023-04-03T14:38:28;4.57;;;1.48;;
45806;SDS011;31507;51.494;7.518;2023-04-03T14:40:56;4.82;;;1.30;;
45806;SDS011;31507;51.494;7.518;2023-04-03T14:43:22;6.25;;;1.50;;
45806;SDS011;31507;51.494;7.518;2023-04-03T14:45:49;3.72;;;1.02;;
45806;SDS011;31507;51.494;7.518;2023-04-03T14:48:20;5.30;;;1.40;;
45806;SDS011;31507;51.494;7.518;2023-04-03T14:50:49;2.88;;;1.30;;
45806;SDS011;31507;51.494;7.518;2023-04-03T14:53:15;3.35;;;1.05;;
45806;SDS011;31507;51.494;7.518;2023-04-03T14:55:46;3.17;;;1.00;;
45806;SDS011;31507;51.494;7.518;2023-04-03T14:58:16;12.13;;;1.83;;
45806;SDS011;31507;51.494;7.518;2023-04-03T15:00:43;4.20;;;1.50;;
45806;SDS011;31507;51.494;7.518;2023-04-03T15:03:14;4.43;;;1.50;;
45806;SDS011;31507;51.494;7.518;2023-04-03T15:05:41;2.42;;;1.13;;
45806;SDS011;31507;51.494;7.518;2023-04-03T15:08:13;2.03;;;1.15;;
45806;SDS011;31507;51.494;7.518;2023-04-03T15:10:44;4.30;;;1.42;;
45806;SDS011;31507;51.494;7.518;2023-04-03T15:13:10;2.70;;;1.08;;
45806;SDS011;31507;51.494;7.518;2023-04-03T15:15:37;3.97;;;1.50;;
45806;SDS011;31507;51.494;7.518;2023-04-03T15:18:03;4.68;;;1.33;;
45806;SDS011;31507;51.494;7.518;2023-04-03T15:20:29;8.20;;;1.40;;
45806;SDS011;31507;51.494;7.518;2023-04-03T15:22:58;3.15;;;1.30;;
45806;SDS011;31507;51.494;7.518;2023-04-03T15:25:26;4.03;;;1.30;;
45806;SDS011;31507;51.494;7.518;2023-04-03T15:27:52;4.22;;;1.25;;
45806;SDS011;31507;51.494;7.518;2023-04-03T15:30:19;4.38;;;1.30;;
45806;SDS011;31507;51.494;7.518;2023-04-03T15:32:46;6.05;;;1.27;;
45806;SDS011;31507;51.494;7.518;2023-04-03T15:35:12;5.05;;;1.77;;
45806;SDS011;31507;51.494;7.518;2023-04-03T15:37:39;3.95;;;1.30;;
45806;SDS011;31507;51.494;7.518;2023-04-03T15:40:05;2.75;;;1.15;;
45806;SDS011;31507;51.494;7.518;2023-04-03T15:42:31;3.40;;;1.35;;
45806;SDS011;31507;51.494;7.518;2023-04-03T15:44:57;3.40;;;1.45;;
45806;SDS011;31507;51.494;7.518;2023-04-03T15:47:23;4.55;;;1.58;;
45806;SDS011;31507;51.494;7.518;2023-04-03T15:49:49;5.00;;;1.23;;
45806;SDS011;31507;51.494;7.518;2023-04-03T15:52:15;6.63;;;1.30;;
45806;SDS011;31507;51.494;7.518;2023-04-03T15:54:41;2.25;;;1.10;;
45806;SDS011;31507;51.494;7.518;2023-04-03T15:57:06;7.43;;;1.70;;
45806;SDS011;31507;51.494;7.518;2023-04-03T15:59:32;2.90;;;1.33;;
45806;SDS011;31507;51.494;7.518;2023-04-03T16:01:58;5.03;;;1.42;;
45806;SDS011;31507;51.494;7.518;2023-04-03T16:04:26;3.80;;;1.17;;
45806;SDS011;31507;51.494;7.518;2023-04-03T16:06:52;5.07;;;1.48;;
45806;SDS011;31507;51.494;7.518;2023-04-03T16:09:18;7.72;;;1.40;;
45806;SDS011;31507;51.494;7.518;2023-04-03T16:11:44;3.72;;;1.40;;
45806;SDS011;31507;51.494;7.518;2023-04-03T16:14:10;3.55;;;1.38;;
45806;SDS011;31507;51.494;7.518;2023-04-03T16:16:36;3.45;;;1.38;;
45806;SDS011;31507;51.494;7.518;2023-04-03T16:19:02;7.15;;;1.55;;
45806;SDS011;31507;51.494;7.518;2023-04-03T16:21:28;4.88;;;2.00;;
45806;SDS011;31507;51.494;7.518;2023-04-03T16:23:58;2.40;;;1.00;;
45806;SDS011;31507;51.494;7.518;2023-04-03T16:26:24;3.67;;;1.08;;
45806;SDS011;31507;51.494;7.518;2023-04-03T16:28:50;3.05;;;1.25;;
45806;SDS011;31507;51.494;7.518;2023-04-03T16:31:16;2.67;;;1.20;;
45806;SDS011;31507;51.494;7.518;2023-04-03T16:33:42;10.52;;;1.65;;
45806;SDS011;31507;51.494;7.518;2023-04-03T16:36:07;2.83;;;1.08;;
45806;SDS011;31507;51.494;7.518;2023-04-03T16:38:33;6.78;;;1.52;;
45806;SDS011;31507;51.494;7.518;2023-04-03T16:40:59;3.42;;;1.17;;
45806;SDS011;31507;51.494;7.518;2023-04-03T16:43:29;2.65;;;1.63;;
45806;SDS011;31507;51.494;7.518;2023-04-03T16:45:55;5.15;;;1.50;;
45806;SDS011;31507;51.494;7.518;2023-04-03T16:48:21;6.55;;;1.75;;
45806;SDS011;31507;51.494;7.518;2023-04-03T16:50:47;6.63;;;1.48;;
45806;SDS011;31507;51.494;7.518;2023-04-03T16:53:15;6.75;;;1.52;;
45806;SDS011;31507;51.494;7.518;2023-04-03T16:55:41;3.47;;;1.50;;
45806;SDS011;31507;51.494;7.518;2023-04-03T16:58:07;6.13;;;1.05;;
45806;SDS011;31507;51.494;7.518;2023-04-03T17:00:32;5.95;;;1.30;;
45806;SDS011;31507;51.494;7.518;2023-04-03T17:02:59;3.78;;;1.00;;
45806;SDS011;31507;51.494;7.518;2023-04-03T17:05:24;3.53;;;1.10;;
45806;SDS011;31507;51.494;7.518;2023-04-03T17:07:50;5.07;;;1.25;;
45806;SDS011;31507;51.494;7.518;2023-04-03T17:10:16;6.40;;;1.40;;